Houma, LA (70363)

8:59 PM CDT on September 04, 2015 (GMT -0500)
ASHLAND NORTH | | Change Station
CLOSE
Current Station
Personal Weather Station
Location: Houma, LA
Elevation: 3 ft
Nearby Weather Stations

Elev 3 ft 29.54 °N, 90.67 °W | Updated 4 seconds ago

Clear
Clear
78.8 °F
Feels Like 83 °F
N
0.0
Wind Variable Wind from NE
Gusts 0.0 mph

Today
High -- | Low -- °F
--% Chance of Precip.
Yesterday
High -- | Low -- °F
Precip. -- in
6:41 AM 7:21 PM
Waning Gibbous, 54% visible
Pressure 29.97 in
Visibility 4.0 miles
Clouds Clear
Heat Index 83 °F
Dew Point 78 °F
Humidity 99%
Rainfall 0.54 in
Snow Depth Not available.
UV 0 out of 12
Pollen 7.50 out of 12
Air Quality Not available.
Flu Activity Not available.
METAR KHUM 050155Z AUTO 00000KT 4SM BR CLR 25/25 A2997 RMK AO2 T02520252
Pressure 29.97 in
Visibility 4.0 miles
Clouds Clear
Heat Index 83 °F
Dew Point 78 °F
Humidity 99%
Rainfall 0.54 in
Snow Depth Not available.
UV 0 out of 12
Pollen 7.50 out of 12
Air Quality Not available.
Flu Activity Not available.
METAR KHUM 050155Z AUTO 00000KT 4SM BR CLR 25/25 A2997 RMK AO2 T02520252

10-Day Weather Forecast

×

Almanac

Astronomy

Sep. 04, 2015 Rise Set
Actual Time
Civil Twilight
Nautical Twilight
Astronomical Twilight
Moon
Length of Visible Light
Length of Day
Tomorrow will be .
, % of the Moon is Illuminated

Today's Extremes

State Highs State Lows

Community

WunderPhotos

Upload Photos

1,852,375 photos uploaded!

WunderBlogs® & News

Nearby

Air Quality

  Air Quality AQ Index Pollutant
Not available.

Snow Depth

Station Depth Elevation

Earthquake Activity

City Distance Mag. Time & Date
Minimum magnitude displayed is 2.5.

Coastal Water Temperatures

Place Temperature

Stations

Nearby Weather Stations

Station Location Temp. Windchill Dew Point Humidity Wind Precip. Elev Updated Type